Saint Louis, MO

8:41 PM CDT on September 03, 2015 (GMT -0500)
1 Mile South of St. Louis Lambert Airport | | Change Station
CLOSE
Current Station
Personal Weather Station
Location: Woodson Terrace, MO
Elevation: 591 ft
Nearby Weather Stations

Elev 591 ft 38.72 °N, 90.36 °W | Updated 0 second ago

Scattered Clouds
Scattered Clouds
81.5 °F
Feels Like 86 °F
N
0.0
Wind Variable Wind from SW
Gusts 0.0 mph

Today
High -- | Low -- °F
--% Chance of Precip.
Yesterday
High -- | Low -- °F
Precip. -- in
6:32 AM 7:28 PM
Waning Gibbous, 65% visible
Pressure 29.88 in
Visibility 10.0 miles
Clouds Few 9000 ft
Scattered Clouds 25000 ft
Heat Index 86 °F
Dew Point 72 °F
Humidity 72%
Rainfall 0.00 in
Snow Depth Not available.
UV 0 out of 12
Pollen 11.20 out of 12
Air Quality Not available.
Flu Activity Not available.
METAR KSTL 040051Z COR 21004KT 10SM FEW090 SCT250 31/18 A2992 RMK AO2 SLP118 T03110183
Pressure 29.88 in
Visibility 10.0 miles
Clouds Few 9000 ft
Scattered Clouds 25000 ft
Heat Index 86 °F
Dew Point 72 °F
Humidity 72%
Rainfall 0.00 in
Snow Depth Not available.
UV 0 out of 12
Pollen 11.20 out of 12
Air Quality Not available.
Flu Activity Not available.
METAR KSTL 040051Z COR 21004KT 10SM FEW090 SCT250 31/18 A2992 RMK AO2 SLP118 T03110183

10-Day Weather Forecast

×

Almanac

Astronomy

Sep. 03, 2015 Rise Set
Actual Time
Civil Twilight
Nautical Twilight
Astronomical Twilight
Moon
Length of Visible Light
Length of Day
Tomorrow will be .
, % of the Moon is Illuminated

Today's Extremes

State Highs State Lows

Community

WunderPhotos

Upload Photos

1,852,088 photos uploaded!

WunderBlogs® & News

Nearby

Air Quality

  Air Quality AQ Index Pollutant
Not available.

Snow Depth

Station Depth Elevation

Earthquake Activity

City Distance Mag. Time & Date
Minimum magnitude displayed is 2.5.

Coastal Water Temperatures

Place Temperature

Stations

Nearby Weather Stations

Station Location Temp. Windchill Dew Point Humidity Wind Precip. Elev Updated Type